Time;durP1;ratioP1;P1;durP2;ratioP2;P2;SDS_P1;SDS_P2;PMS_P1;PMS_P2;Temp;Humidity;BMP_temperature;BMP_pressure;BME280_temperature;BME280_humidity;BME280_pressure;Samples;Min_cycle;Max_cycle;Signal;HPM_P1;HPM_P2
2021/05/13 00:02:20;;;;;;;22.23;16.33;;;;;;;8.51;92.54;95073.88;5031831;28;20057;-46
2021/05/13 00:04:47;;;;;;;22.25;17.58;;;;;;;8.55;93.15;95069.41;5032244;28;20518;-43
2021/05/13 00:07:14;;;;;;;24.13;16.67;;;;;;;8.52;93.54;95064.69;5031378;28;20053;-46
2021/05/13 00:09:42;;;;;;;22.13;15.45;;;;;;;8.32;93.63;95061.00;5032762;28;20049;-49
2021/05/13 00:12:25;;;;;;;21.30;15.70;;;;;;;8.29;93.84;95058.19;5047511;28;20403;-45
2021/05/13 00:14:53;;;;;;;20.45;14.50;;;;;;;8.39;93.10;95057.75;5033122;28;20064;-49
2021/05/13 00:17:20;;;;;;;19.95;15.45;;;;;;;8.45;93.46;95053.69;5034359;28;20080;-46
2021/05/13 00:19:47;;;;;;;20.60;16.15;;;;;;;8.37;94.19;95051.88;5031519;28;20133;-47
2021/05/13 00:22:14;;;;;;;23.23;16.23;;;;;;;8.66;93.49;95058.94;5032332;28;20045;-44
2021/05/13 00:24:41;;;;;;;20.20;15.68;;;;;;;8.50;92.52;95058.84;5032296;28;20059;-47
2021/05/13 00:27:09;;;;;;;22.95;15.07;;;;;;;8.56;92.59;95049.41;5032033;28;20049;-43
2021/05/13 00:29:35;;;;;;;18.92;14.07;;;;;;;8.42;92.74;95054.38;5046988;28;20103;-43
2021/05/13 00:32:03;;;;;;;20.50;14.90;;;;;;;8.41;93.15;95058.19;5032414;28;20053;-44
2021/05/13 00:34:30;;;;;;;23.42;15.63;;;;;;;8.68;93.60;95050.47;5034149;28;20689;-45
2021/05/13 00:36:57;;;;;;;21.20;14.85;;;;;;;8.40;93.36;95040.44;5042811;28;20053;-43
2021/05/13 00:39:25;;;;;;;22.35;15.52;;;;;;;8.72;92.08;95040.59;5050447;28;20053;-47
2021/05/13 00:41:51;;;;;;;20.73;16.30;;;;;;;8.52;92.96;95031.56;5050892;28;20053;-46
2021/05/13 00:44:18;;;;;;;19.27;14.55;;;;;;;8.28;93.24;95025.03;5039986;28;20054;-46
2021/05/13 00:46:45;;;;;;;24.17;16.25;;;;;;;8.39;93.04;95028.88;5031564;28;20064;-44
2021/05/13 00:49:15;;;;;;;18.00;14.10;;;;;;;8.33;92.99;95030.22;5031910;28;20108;-43
2021/05/13 00:51:44;;;;;;;19.92;15.00;;;;;;;8.34;93.52;95021.00;5031554;28;20057;-44
2021/05/13 00:54:12;;;;;;;19.23;15.23;;;;;;;8.41;93.78;95023.13;5031555;28;20065;-47
2021/05/13 00:56:39;;;;;;;19.88;14.73;;;;;;;8.55;93.01;95022.78;5031642;28;20495;-47
2021/05/13 00:59:08;;;;;;;22.15;16.30;;;;;;;8.33;93.54;95019.44;5031379;28;20395;-46
2021/05/13 01:01:48;;;;;;;19.52;15.27;;;;;;;8.43;93.55;95023.59;5039866;28;20041;-46
2021/05/13 01:04:21;;;;;;;21.27;15.18;;;;;;;8.49;93.90;95021.47;5051831;28;20053;-46
2021/05/13 01:06:49;;;;;;;19.10;14.63;;;;;;;8.32;93.51;95019.75;5051029;28;20057;-44
2021/05/13 01:09:22;;;;;;;23.38;17.25;;;;;;;8.77;92.43;95021.47;5031917;28;20069;-41
2021/05/13 01:12:00;;;;;;;22.95;17.58;;;;;;;9.11;90.85;95020.09;5031470;28;20057;-45
2021/05/13 01:17:36;;;;;;;24.80;16.65;;;;;;;8.83;91.95;95020.09;5035354;28;20068;-44
2021/05/13 01:19:51;;;;;;;19.67;15.25;;;;;;;8.43;93.17;95024.38;5035849;28;20057;-46
2021/05/13 01:22:22;;;;;;;19.90;15.55;;;;;;;8.48;93.31;95017.94;5036135;28;20433;-45
2021/05/13 01:24:50;;;;;;;22.85;17.05;;;;;;;8.63;93.11;95017.25;5033637;28;20072;-45
2021/05/13 01:27:19;;;;;;;22.80;16.88;;;;;;;8.50;93.53;95014.94;5035097;28;20080;-44
2021/05/13 01:29:49;;;;;;;23.23;17.13;;;;;;;8.66;93.21;95016.56;5036076;28;20081;-48
2021/05/13 01:32:18;;;;;;;21.48;16.80;;;;;;;8.49;92.81;95014.16;5035429;28;20053;-48
2021/05/13 01:34:46;;;;;;;20.60;15.63;;;;;;;8.51;93.38;95009.19;5035395;28;20081;-43
2021/05/13 01:37:13;;;;;;;21.40;16.90;;;;;;;8.60;93.18;95007.13;5034665;28;20128;-47
2021/05/13 01:39:40;;;;;;;29.50;18.67;;;;;;;9.16;91.16;95000.94;5041289;28;20049;-47
2021/05/13 01:42:08;;;;;;;21.55;17.00;;;;;;;8.73;92.44;95007.09;5053469;28;20080;-43
2021/05/13 01:44:35;;;;;;;24.20;17.73;;;;;;;8.79;92.88;95011.13;5054873;28;20129;-45
2021/05/13 01:47:02;;;;;;;21.60;17.27;;;;;;;8.86;92.46;95004.00;5035729;28;20141;-48
2021/05/13 01:49:32;;;;;;;22.58;16.83;;;;;;;8.87;90.97;94996.69;5035449;28;20061;-48
2021/05/13 01:52:00;;;;;;;23.13;15.93;;;;;;;8.62;92.62;94999.50;5034666;28;20060;-47
2021/05/13 01:54:28;;;;;;;30.45;19.52;;;;;;;9.02;91.65;94993.28;5034556;28;20111;-50
2021/05/13 01:57:06;;;;;;;30.45;21.10;;;;;;;9.33;90.46;94991.78;5034886;28;20057;-48
2021/05/13 01:59:33;;;;;;;23.50;17.70;;;;;;;8.68;92.14;94996.56;5035146;28;20046;-46
2021/05/13 02:02:00;;;;;;;24.70;18.15;;;;;;;8.82;91.97;94986.19;5043826;28;20057;-45
2021/05/13 02:04:28;;;;;;;24.27;18.13;;;;;;;9.06;91.47;94991.44;5054288;28;20044;-45
2021/05/13 02:06:56;;;;;;;25.13;19.02;;;;;;;9.12;90.26;94984.66;5054221;28;20128;-44
2021/05/13 02:09:24;;;;;;;25.63;19.08;;;;;;;9.32;89.51;94990.19;5052973;28;20045;-45
2021/05/13 02:11:51;;;;;;;26.75;18.67;;;;;;;8.77;92.73;94992.59;5052964;28;20520;-46
2021/05/13 02:14:18;;;;;;;23.80;17.63;;;;;;;8.50;93.85;94999.53;5054172;28;20521;-44
2021/05/13 02:16:45;;;;;;;25.83;18.08;;;;;;;8.74;93.64;94997.88;5052380;28;20064;-46
2021/05/13 02:19:12;;;;;;;24.60;18.38;;;;;;;8.68;93.56;94991.16;5033983;28;20466;-44
2021/05/13 02:21:39;;;;;;;26.45;18.33;;;;;;;8.69;93.70;94985.44;5034139;28;20100;-48
2021/05/13 02:24:06;;;;;;;24.00;17.88;;;;;;;8.68;93.39;94980.38;5034327;28;20049;-46
2021/05/13 02:26:33;;;;;;;21.17;15.65;;;;;;;8.76;93.02;94985.63;5033090;28;20049;-45
2021/05/13 02:29:06;;;;;;;19.77;16.20;;;;;;;8.75;92.97;94983.28;5034034;28;20084;-44
2021/05/13 02:31:33;;;;;;;24.80;17.23;;;;;;;8.71;93.00;94979.69;5033673;28;20049;-43
2021/05/13 02:34:00;;;;;;;24.30;16.27;;;;;;;8.52;93.67;94977.66;5034392;28;20065;-44
2021/05/13 02:36:27;;;;;;;20.65;15.73;;;;;;;8.55;93.46;94969.66;5034533;28;20397;-44
2021/05/13 02:38:54;;;;;;;20.73;15.32;;;;;;;8.47;94.00;94964.38;5034199;28;20087;-46
2021/05/13 02:41:21;;;;;;;19.48;14.32;;;;;;;8.33;94.25;94968.22;5034090;28;20056;-46
2021/05/13 02:43:59;;;;;;;20.35;14.70;;;;;;;8.28;94.44;94964.97;5033032;28;20509;-45
2021/05/13 02:46:26;;;;;;;21.00;14.90;;;;;;;8.31;94.66;94959.69;5033631;28;20050;-43
2021/05/13 02:48:53;;;;;;;19.92;15.30;;;;;;;8.29;94.65;94958.47;5017068;28;20053;-47
2021/05/13 02:51:20;;;;;;;20.33;15.43;;;;;;;8.36;95.14;94955.97;5034116;28;20083;-47
2021/05/13 02:53:47;;;;;;;21.33;15.88;;;;;;;8.54;94.59;94959.19;5048323;28;20049;-48
2021/05/13 02:56:14;;;;;;;20.23;15.63;;;;;;;8.38;94.20;94956.44;5034057;28;20075;-46
2021/05/13 02:58:42;;;;;;;21.73;15.45;;;;;;;8.53;93.80;94957.63;5045489;28;20052;-45
2021/05/13 03:01:21;;;;;;;22.63;16.20;;;;;;;8.62;93.61;94960.97;5054928;28;20477;-45
2021/05/13 03:03:49;;;;;;;24.20;15.65;;;;;;;8.48;93.50;94964.03;5051990;28;20439;-47
2021/05/13 03:06:16;;;;;;;20.15;14.52;;;;;;;8.45;93.93;94956.66;5052019;28;20052;-47
2021/05/13 03:08:43;;;;;;;20.20;15.10;;;;;;;8.43;94.33;94953.50;5053042;28;20049;-49
2021/05/13 03:11:10;;;;;;;19.85;15.35;;;;;;;8.35;94.16;94957.91;5053320;28;20045;-45
2021/05/13 03:13:38;;;;;;;20.27;14.95;;;;;;;8.43;94.27;94958.91;5046817;28;20046;-47
2021/05/13 03:16:05;;;;;;;20.75;15.18;;;;;;;8.36;94.56;94950.59;5033455;28;20053;-48
2021/05/13 03:18:33;;;;;;;20.58;14.70;;;;;;;8.36;94.68;94947.91;5032760;28;20049;-46
2021/05/13 03:21:09;;;;;;;18.55;14.55;;;;;;;8.32;94.64;94947.78;5033303;28;20053;-44
2021/05/13 03:23:46;;;;;;;21.08;14.40;;;;;;;8.35;95.10;94946.31;5033031;28;20084;-48
2021/05/13 03:26:13;;;;;;;26.52;15.70;;;;;;;8.26;94.95;94954.53;5068042;28;20044;-47
2021/05/13 03:28:40;;;;;;;18.65;13.68;;;;;;;8.32;94.12;94942.41;5061202;28;20106;-44
2021/05/13 03:31:07;;;;;;;19.48;14.50;;;;;;;8.33;94.58;94945.88;5052272;28;20072;-44
2021/05/13 03:33:34;;;;;;;18.10;13.77;;;;;;;8.28;94.71;94946.09;5053044;28;20057;-45
2021/05/13 03:36:01;;;;;;;18.30;14.55;;;;;;;8.28;94.65;94946.09;5046354;28;20053;-44
2021/05/13 03:38:28;;;;;;;17.60;14.02;;;;;;;8.38;94.34;94940.25;5043831;28;20056;-44
2021/05/13 03:40:55;;;;;;;20.83;14.55;;;;;;;8.20;94.77;94945.91;5053631;28;20041;-45
2021/05/13 03:43:22;;;;;;;18.33;14.55;;;;;;;8.23;94.64;94951.75;5051549;28;20182;-44
2021/05/13 03:45:49;;;;;;;18.17;13.65;;;;;;;8.12;94.61;94949.50;5052823;28;20057;-45
2021/05/13 03:48:16;;;;;;;19.10;14.68;;;;;;;8.21;95.15;94946.69;5032811;28;20054;-44
2021/05/13 03:50:44;;;;;;;20.83;15.02;;;;;;;8.24;94.29;94943.31;5032506;28;20437;-47
2021/05/13 03:53:11;;;;;;;20.45;15.60;;;;;;;8.11;94.17;94942.56;5032372;28;20065;-44
2021/05/13 03:55:38;;;;;;;18.48;13.90;;;;;;;8.33;94.16;94941.28;5031624;28;20060;-44
2021/05/13 03:58:08;;;;;;;19.33;14.82;;;;;;;8.23;93.37;94940.97;5032159;28;20057;-43
2021/05/13 04:00:45;;;;;;;18.60;13.55;;;;;;;8.36;93.62;94953.28;5033424;28;20077;-44
2021/05/13 04:03:12;;;;;;;21.13;14.02;;;;;;;8.34;94.15;94947.44;5050466;28;20049;-45
2021/05/13 04:05:39;;;;;;;17.42;13.75;;;;;;;8.29;94.17;94942.31;5051138;28;20041;-45
2021/05/13 04:08:07;;;;;;;19.08;13.88;;;;;;;8.24;94.27;94947.91;5052481;28;20049;-46
2021/05/13 04:10:35;;;;;;;21.33;15.27;;;;;;;8.36;94.01;94953.28;5053721;28;20114;-45
2021/05/13 04:13:05;;;;;;;20.73;14.20;;;;;;;8.40;94.00;94941.50;5052968;28;20064;-45
2021/05/13 04:15:50;;;;;;;18.13;13.20;;;;;;;8.39;93.32;94948.03;5032177;28;20061;-47
2021/05/13 04:18:17;;;;;;;19.00;14.00;;;;;;;8.70;93.67;94954.63;5031913;28;20430;-46
2021/05/13 04:20:44;;;;;;;18.65;13.82;;;;;;;8.53;93.52;94953.03;5031081;28;20053;-45
2021/05/13 04:23:12;;;;;;;20.13;14.00;;;;;;;8.57;93.44;94945.81;5032345;28;20049;-44
2021/05/13 04:25:39;;;;;;;19.92;13.80;;;;;;;8.59;93.01;94948.97;5032214;28;20053;-45
2021/05/13 04:28:06;;;;;;;18.80;13.80;;;;;;;8.61;92.93;94946.72;5031567;28;20056;-45
2021/05/13 04:30:33;;;;;;;16.55;12.57;;;;;;;8.43;92.49;94948.91;5031958;28;20057;-44
2021/05/13 04:33:00;;;;;;;19.10;14.13;;;;;;;8.44;93.33;94949.69;5032180;28;20446;-44
2021/05/13 04:35:27;;;;;;;16.13;12.32;;;;;;;8.29;93.57;94958.47;5032739;28;20057;-44
2021/05/13 04:37:54;;;;;;;17.77;13.52;;;;;;;8.46;92.93;94950.13;5031878;28;20077;-45
2021/05/13 04:40:21;;;;;;;16.55;13.00;;;;;;;8.37;93.18;94950.22;5032004;28;20049;-44
2021/05/13 04:42:48;;;;;;;22.17;14.75;;;;;;;8.54;93.17;94961.88;5031884;28;20470;-43
2021/05/13 04:45:15;;;;;;;19.00;13.60;;;;;;;8.26;93.39;94948.38;5031812;28;20072;-43
2021/05/13 04:50:11;;;;;;;19.83;14.20;;;;;;;8.31;93.51;94954.28;5031566;28;20045;-46
2021/05/13 04:52:39;;;;;;;17.30;13.80;;;;;;;8.35;93.07;94951.69;5032116;28;20054;-47
2021/05/13 04:55:07;;;;;;;18.80;14.88;;;;;;;8.66;91.89;94959.94;5031677;28;20053;-45
2021/05/13 04:57:36;;;;;;;22.88;16.25;;;;;;;8.62;92.50;94953.66;5031007;28;20053;-46
2021/05/13 05:00:08;;;;;;;20.00;14.15;;;;;;;8.35;93.46;94957.91;5032153;28;20060;-46
2021/05/13 05:02:35;;;;;;;18.58;14.57;;;;;;;8.49;93.31;94952.16;5048038;28;20045;-47
2021/05/13 05:05:04;;;;;;;19.17;15.02;;;;;;;8.77;92.32;94954.03;5051939;28;20052;-46
2021/05/13 05:07:31;;;;;;;17.20;13.57;;;;;;;8.51;92.79;94952.56;5044245;28;20053;-46
2021/05/13 05:09:58;;;;;;;21.40;15.13;;;;;;;8.77;92.39;94948.66;5031933;28;20046;-45
2021/05/13 05:12:25;;;;;;;17.45;13.38;;;;;;;8.41;92.82;94950.38;5032271;28;20046;-43
2021/05/13 05:14:51;;;;;;;22.23;15.32;;;;;;;8.80;91.82;94945.25;5051514;22;20061;-49
2021/05/13 05:17:18;;;;;;;19.90;14.90;;;;;;;8.50;93.27;94947.53;5043858;28;20052;-43
2021/05/13 05:19:46;;;;;;;18.85;14.15;;;;;;;8.56;92.97;94946.94;5049539;28;20087;-45
2021/05/13 05:22:13;;;;;;;19.95;14.15;;;;;;;8.85;92.64;94950.44;5050467;28;20064;-43
2021/05/13 05:24:40;;;;;;;18.98;13.55;;;;;;;8.54;92.34;94949.19;5019760;28;20054;-44
2021/05/13 05:27:07;;;;;;;16.63;13.15;;;;;;;8.39;92.99;94939.16;5010592;28;20061;-48
2021/05/13 05:29:34;;;;;;;19.77;14.43;;;;;;;8.43;92.81;94945.44;5015662;28;20045;-44
2021/05/13 05:32:01;;;;;;;20.20;13.50;;;;;;;8.36;93.07;94947.91;5028708;28;20540;-44
2021/05/13 05:34:28;;;;;;;18.10;13.85;;;;;;;8.31;93.77;94946.22;5030008;28;20049;-45
2021/05/13 05:36:56;;;;;;;19.02;14.15;;;;;;;8.38;93.10;94951.03;5026573;28;20130;-43
2021/05/13 05:39:25;;;;;;;16.90;13.07;;;;;;;8.34;93.28;94944.75;5010114;28;20487;-45
2021/05/13 05:41:53;;;;;;;19.25;13.90;;;;;;;8.51;93.78;94947.19;5010695;28;20050;-48
2021/05/13 05:44:20;;;;;;;19.05;14.02;;;;;;;8.56;93.05;94943.47;5010073;28;20546;-46
2021/05/13 05:46:47;;;;;;;19.98;14.43;;;;;;;8.41;93.12;94947.66;5022991;28;20053;-47
2021/05/13 05:49:15;;;;;;;20.65;14.52;;;;;;;8.41;93.83;94942.28;5030004;28;20418;-46
2021/05/13 05:51:42;;;;;;;18.88;13.90;;;;;;;8.43;93.45;94926.56;5028613;28;20049;-46
2021/05/13 05:54:09;;;;;;;19.13;14.43;;;;;;;8.53;93.35;94933.38;5029819;28;20045;-45
2021/05/13 05:56:36;;;;;;;17.92;14.02;;;;;;;8.42;93.12;94925.78;5027997;28;20064;-47
2021/05/13 05:59:05;;;;;;;22.77;16.13;;;;;;;8.66;93.82;94932.19;5015244;28;20442;-44
2021/05/13 06:01:34;;;;;;;20.98;15.32;;;;;;;8.74;92.69;94939.34;5011688;28;20046;-46
2021/05/13 06:04:02;;;;;;;21.35;14.48;;;;;;;8.64;92.52;94924.47;5013625;28;20112;-44
2021/05/13 06:06:29;;;;;;;18.52;14.43;;;;;;;9.11;91.17;94931.06;5015546;28;20045;-45
2021/05/13 06:08:56;;;;;;;19.13;14.10;;;;;;;8.75;91.83;94932.06;5032134;28;20049;-45
2021/05/13 06:11:23;;;;;;;18.60;14.02;;;;;;;8.69;92.21;94931.50;5033452;28;20064;-50
2021/05/13 06:13:50;;;;;;;24.65;15.18;;;;;;;8.72;92.19;94932.72;5033375;28;20184;-46
2021/05/13 06:16:17;;;;;;;20.45;14.80;;;;;;;8.66;92.62;94927.56;5031062;28;20061;-49
2021/05/13 06:18:59;;;;;;;20.67;13.68;;;;;;;8.82;92.25;94930.31;5033231;28;20064;-47
2021/05/13 06:21:26;;;;;;;20.10;14.18;;;;;;;8.83;91.89;94939.97;5034306;28;20076;-47
2021/05/13 06:23:57;;;;;;;16.73;13.80;;;;;;;8.89;91.80;94933.19;5050407;28;20430;-47
2021/05/13 06:26:29;;;;;;;20.92;14.05;;;;;;;9.00;91.66;94935.38;5031109;28;20049;-46
2021/05/13 06:29:02;;;;;;;19.38;15.35;;;;;;;9.03;91.99;94935.47;5041346;28;20140;-44
2021/05/13 06:31:30;;;;;;;17.60;13.02;;;;;;;8.90;91.53;94933.97;5034719;28;20080;-47
2021/05/13 06:33:57;;;;;;;20.98;14.93;;;;;;;8.90;92.23;94928.56;5035033;28;20048;-48
2021/05/13 06:36:24;;;;;;;19.67;15.00;;;;;;;9.06;91.33;94932.09;5026534;28;20482;-48
2021/05/13 06:38:51;;;;;;;18.23;14.73;;;;;;;9.04;91.19;94942.47;5033437;28;20049;-47
2021/05/13 06:41:18;;;;;;;19.42;14.13;;;;;;;9.05;91.10;94937.84;5031667;28;20137;-45
2021/05/13 06:43:45;;;;;;;20.65;14.80;;;;;;;9.33;90.54;94929.69;5035577;28;20049;-47
2021/05/13 06:46:12;;;;;;;17.45;13.43;;;;;;;9.11;90.73;94934.53;5034771;28;20099;-47
2021/05/13 06:48:40;;;;;;;17.52;13.02;;;;;;;9.02;91.23;94936.59;5022622;28;20065;-46
2021/05/13 06:51:07;;;;;;;18.38;14.55;;;;;;;9.32;91.10;94936.97;5024229;28;20061;-48
2021/05/13 06:53:34;;;;;;;16.75;13.30;;;;;;;9.35;89.97;94933.59;5036863;28;20104;-47
2021/05/13 06:56:01;;;;;;;18.58;13.20;;;;;;;9.36;90.48;94940.56;5051322;28;20490;-46
2021/05/13 06:58:28;;;;;;;20.80;15.65;;;;;;;9.62;89.68;94943.84;5038206;28;20487;-46
2021/05/13 07:00:55;;;;;;;20.20;14.70;;;;;;;9.78;89.60;94934.63;5022946;28;20046;-49
2021/05/13 07:03:22;;;;;;;18.27;12.52;;;;;;;9.45;89.18;94940.38;5019484;28;20049;-49
2021/05/13 07:05:49;;;;;;;17.95;13.00;;;;;;;9.25;90.58;94944.13;5030564;28;20537;-47
2021/05/13 07:08:16;;;;;;;21.83;13.55;;;;;;;9.23;90.25;94944.47;5028479;28;20445;-49
2021/05/13 07:10:44;;;;;;;19.00;13.38;;;;;;;9.67;89.29;94932.78;5032059;28;20055;-47
2021/05/13 07:13:11;;;;;;;18.70;14.07;;;;;;;9.84;89.97;94932.41;5034431;28;20056;-50
2021/05/13 07:15:37;;;;;;;18.48;13.27;;;;;;;9.73;87.93;94934.88;5032578;28;20041;-49
2021/05/13 07:18:10;;;;;;;17.15;13.10;;;;;;;10.02;87.98;94936.31;5026595;28;20115;-48
2021/05/13 07:20:37;;;;;;;19.17;13.98;;;;;;;9.96;87.08;94929.59;5030214;28;20037;-49
2021/05/13 07:23:05;;;;;;;19.95;14.15;;;;;;;10.15;89.00;94941.59;5027890;28;20060;-51
2021/05/13 07:25:33;;;;;;;16.00;12.65;;;;;;;9.69;88.23;94931.31;5043548;28;20110;-46
2021/05/13 07:28:00;;;;;;;16.98;12.63;;;;;;;9.80;87.97;94936.94;5031576;28;20141;-44
2021/05/13 07:30:27;;;;;;;17.23;11.93;;;;;;;9.69;87.28;94930.53;5021349;28;20407;-46
2021/05/13 07:32:55;;;;;;;19.20;12.73;;;;;;;9.79;87.09;94930.00;5020153;28;20495;-46
2021/05/13 07:35:23;;;;;;;17.60;12.95;;;;;;;10.25;87.21;94935.63;5031255;28;20095;-46
2021/05/13 07:37:50;;;;;;;14.60;11.25;;;;;;;9.76;86.64;94936.09;5029373;28;20053;-46
2021/05/13 07:40:20;;;;;;;18.23;11.32;;;;;;;9.97;86.07;94936.56;5025155;28;20503;-49
2021/05/13 07:42:48;;;;;;;17.00;11.80;;;;;;;10.05;85.79;94932.13;5012761;28;20057;-43
2021/05/13 07:45:16;;;;;;;17.67;13.02;;;;;;;10.46;84.43;94936.13;5023307;28;20207;-43
2021/05/13 07:47:45;;;;;;;16.02;12.25;;;;;;;10.81;83.95;94929.81;5011384;28;20141;-47
2021/05/13 07:50:15;;;;;;;13.35;11.55;;;;;;;10.36;84.29;94938.56;5023557;28;20053;-46
2021/05/13 07:52:44;;;;;;;16.75;12.23;;;;;;;10.43;83.17;94926.00;5026956;28;20050;-44
2021/05/13 07:55:12;;;;;;;21.00;12.32;;;;;;;10.55;84.54;94937.81;5012371;28;20075;-44
2021/05/13 07:57:39;;;;;;;15.07;12.25;;;;;;;10.66;83.55;94938.78;5012993;28;20053;-44
2021/05/13 08:00:08;;;;;;;14.10;9.95;;;;;;;10.34;81.48;94940.88;5020439;28;20045;-44
2021/05/13 08:02:41;;;;;;;14.60;10.63;;;;;;;10.49;83.67;94940.78;5027115;28;20042;-46
2021/05/13 08:05:09;;;;;;;14.45;10.60;;;;;;;10.62;82.51;94938.72;5031369;28;20060;-44
2021/05/13 08:07:36;;;;;;;14.55;10.23;;;;;;;10.16;84.15;94932.34;5014004;28;20067;-45
2021/05/13 08:10:05;;;;;;;15.23;9.57;;;;;;;10.23;82.22;94925.16;5025365;28;20057;-47
2021/05/13 08:12:32;;;;;;;16.58;11.13;;;;;;;10.38;82.79;94930.91;5031415;28;20136;-45
2021/05/13 08:14:59;;;;;;;12.82;9.27;;;;;;;10.38;82.34;94928.97;5033837;28;20073;-49
2021/05/13 08:17:26;;;;;;;16.67;11.55;;;;;;;10.31;82.21;94933.47;5047276;28;20052;-45
2021/05/13 08:19:53;;;;;;;13.60;10.35;;;;;;;10.44;82.92;94924.84;5051300;28;20056;-45
2021/05/13 08:22:20;;;;;;;17.20;10.40;;;;;;;10.35;83.03;94923.50;5051618;28;20104;-46
2021/05/13 08:24:48;;;;;;;16.30;10.15;;;;;;;10.22;82.43;94926.31;5047661;28;20057;-44
2021/05/13 08:27:15;;;;;;;16.42;10.52;;;;;;;10.22;84.26;94920.91;5011060;28;20057;-45
2021/05/13 08:29:42;;;;;;;16.83;12.32;;;;;;;10.56;82.83;94921.22;5011534;28;20058;-51
2021/05/13 08:32:09;;;;;;;16.40;11.23;;;;;;;10.68;83.48;94923.00;5011493;28;20054;-45
2021/05/13 08:34:36;;;;;;;15.02;10.48;;;;;;;10.62;81.68;94919.00;5017808;28;20057;-48
2021/05/13 08:37:02;;;;;;;12.75;10.63;;;;;;;10.79;81.35;94915.06;5016864;28;20065;-45
2021/05/13 08:39:31;;;;;;;12.68;10.48;;;;;;;10.50;81.50;94914.53;5011605;28;20510;-47
2021/05/13 08:42:00;;;;;;;13.82;9.60;;;;;;;10.57;80.28;94911.97;5011189;28;20112;-44
2021/05/13 08:44:28;;;;;;;16.88;11.00;;;;;;;10.78;80.88;94917.00;5027816;28;20475;-45
2021/05/13 08:46:57;;;;;;;12.05;10.43;;;;;;;10.88;80.90;94916.41;5016890;28;20054;-44
2021/05/13 08:49:26;;;;;;;13.85;10.23;;;;;;;10.98;78.97;94905.03;5024516;28;20064;-45
2021/05/13 08:51:54;;;;;;;13.52;9.75;;;;;;;10.60;80.82;94913.19;5029859;28;20041;-44
2021/05/13 08:54:23;;;;;;;13.07;10.25;;;;;;;10.83;80.73;94916.72;5026309;28;20056;-47
2021/05/13 08:56:52;;;;;;;11.40;9.40;;;;;;;11.04;78.49;94910.91;5011015;28;20136;-44
2021/05/13 08:59:20;;;;;;;11.20;9.18;;;;;;;11.07;76.55;94904.78;5027178;28;20061;-47
2021/05/13 09:01:58;;;;;;;12.05;9.70;;;;;;;11.13;78.35;94902.56;5030813;28;20049;-44
2021/05/13 09:04:46;;;;;;;12.88;8.63;;;;;;;11.16;77.93;94901.84;5031484;28;20131;-43
2021/05/13 09:07:25;;;;;;;11.57;8.45;;;;;;;11.40;76.73;94909.59;5024986;28;20080;-45
2021/05/13 09:10:01;;;;;;;10.25;8.50;;;;;;;11.52;75.30;94905.13;5030745;28;20053;-43
2021/05/13 09:12:31;;;;;;;12.07;8.73;;;;;;;11.33;75.97;94908.69;5028843;28;20049;-48
2021/05/13 09:15:19;;;;;;;10.32;8.25;;;;;;;11.52;75.15;94913.25;5029846;28;20061;-46
2021/05/13 09:17:51;;;;;;;9.15;7.47;;;;;;;11.54;74.42;94910.97;5018780;28;20502;-46
2021/05/13 09:20:28;;;;;;;11.18;7.60;;;;;;;11.70;76.09;94912.41;5030750;28;20053;-43
2021/05/13 09:23:16;;;;;;;9.98;7.60;;;;;;;11.40;73.88;94896.03;5028404;28;20084;-50
2021/05/13 09:26:10;;;;;;;10.35;8.30;;;;;;;11.40;74.43;94896.03;5025429;28;20455;-45
2021/05/13 09:28:39;;;;;;;9.90;7.20;;;;;;;11.78;72.18;94898.94;5026577;28;20045;-45
2021/05/13 09:31:06;;;;;;;9.77;7.25;;;;;;;11.65;73.46;94896.44;5030853;28;20052;-48
2021/05/13 09:33:41;;;;;;;10.98;7.10;;;;;;;12.08;74.58;94894.38;5030189;28;20157;-46
2021/05/13 09:36:25;;;;;;;14.65;7.97;;;;;;;11.62;72.76;94890.97;5026620;28;20058;-43
2021/05/13 09:38:52;;;;;;;12.93;7.63;;;;;;;11.91;70.64;94890.25;5034865;28;20037;-46
2021/05/13 09:41:30;;;;;;;8.18;6.65;;;;;;;12.08;70.86;94890.88;5035041;28;20057;-45
2021/05/13 09:43:57;;;;;;;7.82;6.75;;;;;;;11.78;71.82;94890.81;5038596;28;20075;-45
2021/05/13 09:46:35;;;;;;;9.05;5.70;;;;;;;11.91;70.61;94890.25;5025797;28;20426;-47
2021/05/13 09:49:04;;;;;;;8.35;6.40;;;;;;;12.08;70.11;94886.22;5034025;28;20153;-45
2021/05/13 09:51:34;;;;;;;8.68;6.60;;;;;;;12.37;70.67;94881.94;5030154;28;20127;-47
2021/05/13 09:54:11;;;;;;;9.68;7.28;;;;;;;12.21;69.16;94884.06;5025135;28;20049;-48
2021/05/13 09:56:41;;;;;;;8.73;6.15;;;;;;;12.16;67.06;94881.69;5030878;28;20505;-45
2021/05/13 09:59:27;;;;;;;13.77;7.57;;;;;;;11.91;70.91;94878.66;5028513;28;20062;-45
2021/05/13 10:01:55;;;;;;;8.40;6.90;;;;;;;11.91;70.71;94889.50;5026771;28;20049;-48
2021/05/13 10:04:23;;;;;;;9.55;7.47;;;;;;;12.08;71.69;94880.03;5028842;28;20497;-45
2021/05/13 10:06:50;;;;;;;11.40;8.02;;;;;;;11.98;68.19;94881.44;5029405;28;20065;-45
2021/05/13 10:09:19;;;;;;;7.88;7.07;;;;;;;11.84;69.99;94873.91;5035250;28;20069;-44
2021/05/13 10:11:50;;;;;;;11.07;7.35;;;;;;;12.09;70.22;94866.13;5033569;28;20462;-46
2021/05/13 10:14:19;;;;;;;11.50;7.70;;;;;;;12.31;69.01;94878.00;5028057;28;20103;-47
2021/05/13 10:16:48;;;;;;;9.13;7.57;;;;;;;11.87;67.84;94875.88;5029989;28;20061;-50
2021/05/13 10:19:51;;;;;;;10.95;8.27;;;;;;;11.68;70.14;94873.25;5032706;28;20437;-48
2021/05/13 10:22:19;;;;;;;11.85;8.05;;;;;;;11.56;73.37;94874.22;4991905;28;20117;-44
2021/05/13 10:24:47;;;;;;;9.95;6.32;;;;;;;11.50;73.32;94872.97;5027812;28;20164;-47
2021/05/13 10:27:19;;;;;;;6.68;5.03;;;;;;;11.15;72.50;94871.28;5032726;28;20065;-49
2021/05/13 10:29:59;;;;;;;6.53;4.57;;;;;;;11.11;75.39;94864.22;5027936;28;20088;-47
2021/05/13 10:32:32;;;;;;;8.02;4.88;;;;;;;11.21;75.97;94859.00;5033797;28;20148;-45
2021/05/13 10:35:12;;;;;;;7.63;5.10;;;;;;;11.07;75.65;94872.28;5032541;28;20060;-47
2021/05/13 10:37:40;;;;;;;7.75;5.65;;;;;;;11.10;75.13;94865.38;5012581;28;20054;-47
2021/05/13 10:40:20;;;;;;;8.50;5.78;;;;;;;11.00;76.88;94870.25;5012792;28;20131;-44
2021/05/13 10:43:24;;;;;;;7.80;6.32;;;;;;;11.14;81.82;94858.09;5030454;28;20465;-46
2021/05/13 10:45:51;;;;;;;11.60;6.60;;;;;;;11.73;77.39;94858.59;5023761;28;20061;-46
2021/05/13 10:48:24;;;;;;;12.88;7.72;;;;;;;12.05;75.28;94870.69;5031347;28;20076;-46
2021/05/13 10:50:52;;;;;;;9.00;7.30;;;;;;;11.82;77.07;94857.19;5018996;28;20073;-45
2021/05/13 10:53:34;;;;;;;9.25;7.40;;;;;;;11.46;77.22;94851.25;5013410;28;20057;-46
2021/05/13 10:56:23;;;;;;;10.65;6.97;;;;;;;11.61;75.48;94848.78;5013268;28;20132;-46
2021/05/13 10:59:13;;;;;;;12.63;7.95;;;;;;;11.75;75.74;94848.97;5013101;28;20060;-49
2021/05/13 11:01:48;;;;;;;9.73;7.10;;;;;;;11.91;74.66;94843.41;5013312;28;20046;-47
2021/05/13 11:04:21;;;;;;;13.70;7.15;;;;;;;11.59;72.17;94840.22;5013112;28;20391;-46
2021/05/13 11:06:55;;;;;;;9.05;7.07;;;;;;;11.66;72.34;94841.09;5012779;28;20152;-48
2021/05/13 11:09:43;;;;;;;11.02;7.05;;;;;;;11.99;73.03;94842.38;5013444;28;20143;-46
2021/05/13 11:12:18;;;;;;;8.15;6.03;;;;;;;12.19;71.15;94837.59;5013215;28;20634;-46
2021/05/13 11:15:41;;;;;;;9.65;7.03;;;;;;;12.71;73.42;94846.69;5046415;23;20053;-45
2021/05/13 11:20:32;;;;;;;7.57;5.70;;;;;;;12.09;70.13;94838.19;5033099;28;20058;-49
2021/05/13 11:23:08;;;;;;;9.90;6.47;;;;;;;12.71;69.30;94843.19;5028667;28;20490;-46
2021/05/13 11:25:44;;;;;;;8.70;5.85;;;;;;;12.81;68.87;94832.44;4993783;28;20137;-47
2021/05/13 11:28:29;;;;;;;7.82;5.68;;;;;;;12.72;69.98;94837.38;4985127;28;20061;-45
2021/05/13 11:31:05;;;;;;;6.40;4.60;;;;;;;12.40;67.15;94831.63;4974295;28;20062;-46
2021/05/13 11:33:38;;;;;;;7.65;4.90;;;;;;;12.59;69.00;94827.94;4973927;28;20051;-47
2021/05/13 11:36:07;;;;;;;7.45;4.80;;;;;;;12.52;66.62;94825.16;4973916;28;20563;-45
2021/05/13 11:38:36;;;;;;;7.47;4.82;;;;;;;12.53;65.81;94827.50;4973166;28;20063;-43
2021/05/13 11:41:04;;;;;;;7.18;4.65;;;;;;;12.34;67.37;94819.53;4973915;28;20054;-44
2021/05/13 11:43:33;;;;;;;7.97;5.55;;;;;;;12.76;67.86;94830.06;4973943;28;20054;-47
2021/05/13 11:46:03;;;;;;;6.85;5.05;;;;;;;12.63;67.41;94831.47;4973450;28;20062;-41
2021/05/13 11:48:41;;;;;;;7.85;4.85;;;;;;;12.68;65.75;94825.72;4972149;28;20079;-41